This is the latest recevied weather packets stored in our database for station/object KL1SF-7. If no packets are shown the sender has not sent any weather packets the latest 1 day(s).
| Time | Temp. | Humidity | Pressure | Rain* | Wind** | Luminosity | Snow |
|---|---|---|---|---|---|---|---|
| 1778020427 | 13.33° C | 25% | 1010.3 hPa | 0 mm | 0.45 m/s, 233° | - | - |
| 1778019807 | 12.78° C | 26% | 1010.8 hPa | 0 mm | 0.45 m/s, 357° | - | - |
| 1778019217 | 12.78° C | 27% | 1010.8 hPa | 0 mm | 0.45 m/s, 248° | - | - |
| 1778018614 | 12.78° C | 26% | 1010.4 hPa | 0 mm | 0.89 m/s, 203° | - | - |
| 1778018015 | 13.33° C | 25% | 1010.7 hPa | 0 mm | 0.45 m/s, 248° | - | - |
| 1778017411 | 13.33° C | 26% | 1010.7 hPa | 0 mm | 0.45 m/s, 212° | - | - |
| 1778016827 | 12.78° C | 27% | 1010.7 hPa | 0 mm | 0 m/s | - | - |
| 1778016208 | 13.33° C | 26% | 1011.1 hPa | 0 mm | 0.45 m/s, 223° | - | - |
| 1778015600 | 13.33° C | 26% | 1011.1 hPa | 0 mm | 0.45 m/s, 217° | - | - |
| 1778015017 | 12.78° C | 26% | 1011.2 hPa | 0 mm | 0 m/s | - | - |
| 1778014418 | 12.78° C | 26% | 1011.8 hPa | 0 mm | 0.45 m/s, 220° | - | - |
| 1778013808 | 13.33° C | 26% | 1011.8 hPa | 0 mm | 0.89 m/s, 251° | - | - |
| 1778013221 | 13.89° C | 24% | 1011.1 hPa | 0 mm | 0.45 m/s, 278° | - | - |
| 1778012604 | 12.78° C | 26% | 1011.9 hPa | 0 mm | 0.45 m/s, 291° | - | - |
| 1778012014 | 13.33° C | 26% | 1011.9 hPa | 0 mm | 0.45 m/s, 209° | - | - |
| 1778011410 | 13.33° C | 26% | 1011.5 hPa | 0 mm | 0.45 m/s, 257° | - | - |
| 1778010811 | 13.33° C | 25% | 1011.7 hPa | 0 mm | 0.45 m/s, 251° | - | - |
| 1778010201 | 13.33° C | 26% | 1011.7 hPa | 0 mm | 0.45 m/s, 247° | - | - |
| 1778009617 | 12.22° C | 27% | 1012.4 hPa | 0 mm | 0.45 m/s, 261° | - | - |
| 1778009018 | 12.22° C | 28% | 1012.6 hPa | 0 mm | 0 m/s | - | - |
| 1778007824 | 12.22° C | 28% | 1012 hPa | 0 mm | 0 m/s | - | - |
| 1778007204 | 12.22° C | 30% | 1012.2 hPa | 0 mm | 0.45 m/s, 322° | - | - |
| 1778006617 | 12.22° C | 30% | 1012.2 hPa | 0 mm | 0 m/s | - | - |
| 1778006010 | 11.67° C | 30% | 1012.8 hPa | 0 mm | 0.89 m/s, 288° | - | - |
| 1778005411 | 11.67° C | 30% | 1012 hPa | 0 mm | 0.45 m/s, 267° | - | - |
* Rain since midnight (hover to see other rain measurements)
** Current wind speed in m/s (hover to see current wind gust speed)